Time;durP1;ratioP1;P1;durP2;ratioP2;P2;SDS_P1;SDS_P2;PMS_P1;PMS_P2;Temp;Humidity;BMP_temperature;BMP_pressure;BME280_temperature;BME280_humidity;BME280_pressure;Samples;Min_cycle;Max_cycle;Signal;HPM_P1;HPM_P2
2023/09/18 00:00:51;;;;;;;0.20;0.20;;;;;;;;;;5009511;28;20477;-87
2023/09/18 00:03:24;;;;;;;0.20;0.20;;;;;;;;;;5014087;28;20542;-87
2023/09/18 00:05:50;;;;;;;0.30;0.30;;;;;;;;;;5022878;28;20036;-87
2023/09/18 00:08:16;;;;;;;0.10;0.10;;;;;;;;;;5023362;28;20099;-87
2023/09/18 00:10:43;;;;;;;0.15;0.15;;;;;;;;;;5023839;28;20037;-86
2023/09/18 00:13:09;;;;;;;0.08;0.08;;;;;;;;;;5010264;28;20433;-86
2023/09/18 00:15:36;;;;;;;0.10;0.10;;;;;;;;;;5005452;28;20045;-86
2023/09/18 00:18:03;;;;;;;0.03;0.03;;;;;;;;;;5023224;28;20041;-87
2023/09/18 00:20:29;;;;;;;0.10;0.10;;;;;;;;;;5023883;28;20041;-87
2023/09/18 00:22:55;;;;;;;0.20;0.20;;;;;;;;;;5023441;28;20052;-87
2023/09/18 00:25:21;;;;;;;0.10;0.10;;;;;;;;;;5017313;28;20045;-87
2023/09/18 00:27:47;;;;;;;0.30;0.30;;;;;;;;;;5004220;28;20041;-86
2023/09/18 00:30:14;;;;;;;0.30;0.30;;;;;;;;;;5003798;28;20090;-87
2023/09/18 00:32:40;;;;;;;0.20;0.20;;;;;;;;;;5003594;28;20444;-86
2023/09/18 00:35:09;;;;;;;0.15;0.15;;;;;;;;;;5020888;28;20041;-86
2023/09/18 00:37:37;;;;;;;0.20;0.20;;;;;;;;;;5004154;28;20041;-87
2023/09/18 00:40:04;;;;;;;0.20;0.20;;;;;;;;;;5003743;28;20041;-87
2023/09/18 00:42:32;;;;;;;0.35;0.35;;;;;;;;;;5007421;28;20033;-87
2023/09/18 00:44:58;;;;;;;0.10;0.10;;;;;;;;;;5022683;28;20132;-87
2023/09/18 00:47:25;;;;;;;0.10;0.10;;;;;;;;;;5024587;28;20045;-86
2023/09/18 00:49:52;;;;;;;0.20;0.20;;;;;;;;;;5023308;28;20028;-86
2023/09/18 00:52:20;;;;;;;0.20;0.20;;;;;;;;;;5038729;28;20037;-87
2023/09/18 00:54:47;;;;;;;0.20;0.20;;;;;;;;;;5003957;28;20045;-86
2023/09/18 00:57:13;;;;;;;0.20;0.20;;;;;;;;;;5021884;28;20044;-87
2023/09/18 00:59:39;;;;;;;0.30;0.30;;;;;;;;;;5021701;28;20055;-87
2023/09/18 01:02:05;;;;;;;0.22;0.22;;;;;;;;;;5022682;28;20142;-87
2023/09/18 01:04:33;;;;;;;0.10;0.10;;;;;;;;;;5017480;28;20059;-87
2023/09/18 01:07:05;;;;;;;0.10;0.10;;;;;;;;;;5002132;28;20124;-88
2023/09/18 01:09:32;;;;;;;0.20;0.20;;;;;;;;;;5001917;28;20045;-88
2023/09/18 01:12:03;;;;;;;0.17;0.17;;;;;;;;;;5002556;28;20040;-86
2023/09/18 01:14:36;;;;;;;0.20;0.20;;;;;;;;;;5020314;28;20063;-87
2023/09/18 01:17:05;;;;;;;0.10;0.10;;;;;;;;;;5002658;28;20041;-87
2023/09/18 01:19:44;;;;;;;0.20;0.20;;;;;;;;;;5004582;28;20052;-87
2023/09/18 01:22:11;;;;;;;0.17;0.17;;;;;;;;;;5038594;28;20041;-87
2023/09/18 01:24:37;;;;;;;0.10;0.10;;;;;;;;;;5019845;28;20067;-87
2023/09/18 01:27:04;;;;;;;0.20;0.20;;;;;;;;;;5003082;28;20505;-87
2023/09/18 01:29:31;;;;;;;0.20;0.20;;;;;;;;;;5004216;28;20041;-87
2023/09/18 01:31:58;;;;;;;0.20;0.20;;;;;;;;;;5022085;28;20186;-87
2023/09/18 01:34:26;;;;;;;0.20;0.20;;;;;;;;;;5022279;28;20033;-87
2023/09/18 01:36:52;;;;;;;0.28;0.28;;;;;;;;;;5001661;28;20045;-89
2023/09/18 01:39:20;;;;;;;0.10;0.10;;;;;;;;;;5002626;28;20048;-87
2023/09/18 01:41:46;;;;;;;0.22;0.22;;;;;;;;;;5022327;28;20051;-89
2023/09/18 01:44:12;;;;;;;0.20;0.20;;;;;;;;;;5024246;28;20041;-87
2023/09/18 01:46:38;;;;;;;0.08;0.08;;;;;;;;;;5012203;28;20041;-87
2023/09/18 01:49:04;;;;;;;0.10;0.10;;;;;;;;;;5004881;28;20063;-86
2023/09/18 01:51:30;;;;;;;0.20;0.20;;;;;;;;;;5020122;28;20112;-87
2023/09/18 01:53:56;;;;;;;0.20;0.20;;;;;;;;;;5016520;28;20036;-88
2023/09/18 01:56:24;;;;;;;0.10;0.10;;;;;;;;;;5009235;28;20095;-88
2023/09/18 01:58:50;;;;;;;0.10;0.10;;;;;;;;;;5006054;28;20121;-87
2023/09/18 02:01:16;;;;;;;0.13;0.13;;;;;;;;;;5029568;28;20085;-87
2023/09/18 02:03:42;;;;;;;0.10;0.10;;;;;;;;;;5005463;28;20428;-87
2023/09/18 02:06:09;;;;;;;0.08;0.08;;;;;;;;;;5018269;28;20041;-87
2023/09/18 02:08:35;;;;;;;0.10;0.10;;;;;;;;;;5023836;28;20123;-87
2023/09/18 02:11:02;;;;;;;0.20;0.20;;;;;;;;;;5024704;28;20037;-87
2023/09/18 02:13:29;;;;;;;0.15;0.15;;;;;;;;;;5024985;28;20040;-87
2023/09/18 02:15:55;;;;;;;0.20;0.20;;;;;;;;;;5029481;28;20037;-88
2023/09/18 02:18:21;;;;;;;0.13;0.13;;;;;;;;;;5005692;28;20056;-87
2023/09/18 02:20:48;;;;;;;0.30;0.30;;;;;;;;;;5004969;28;20077;-87
2023/09/18 02:23:15;;;;;;;0.30;0.30;;;;;;;;;;5015631;28;20092;-88
2023/09/18 02:25:41;;;;;;;0.10;0.10;;;;;;;;;;5022151;28;20045;-87
2023/09/18 02:28:07;;;;;;;0.10;0.10;;;;;;;;;;5012812;28;20045;-86
2023/09/18 02:30:33;;;;;;;0.10;0.10;;;;;;;;;;5004838;28;20044;-87
2023/09/18 02:33:03;;;;;;;0.20;0.20;;;;;;;;;;5022081;28;20401;-87
2023/09/18 02:35:29;;;;;;;0.20;0.20;;;;;;;;;;5015968;28;20069;-88
2023/09/18 02:37:55;;;;;;;0.20;0.20;;;;;;;;;;5004620;28;20482;-87
2023/09/18 02:40:21;;;;;;;0.20;0.20;;;;;;;;;;5004767;28;20547;-87
2023/09/18 02:42:47;;;;;;;0.00;0.00;;;;;;;;;;5005682;28;20048;-86
2023/09/18 02:45:13;;;;;;;0.10;0.10;;;;;;;;;;5003735;28;20045;-87
2023/09/18 02:47:41;;;;;;;0.10;0.10;;;;;;;;;;5005111;28;20049;-88
2023/09/18 02:50:07;;;;;;;0.30;0.30;;;;;;;;;;5004500;28;20045;-88
2023/09/18 02:52:33;;;;;;;0.25;0.25;;;;;;;;;;5018882;28;20033;-87
2023/09/18 02:54:59;;;;;;;0.30;0.30;;;;;;;;;;5034790;28;20045;-88
2023/09/18 02:57:25;;;;;;;0.20;0.20;;;;;;;;;;5006016;28;20048;-88
2023/09/18 02:59:51;;;;;;;0.10;0.10;;;;;;;;;;5021279;28;20045;-88
2023/09/18 03:02:17;;;;;;;0.30;0.30;;;;;;;;;;5004510;28;20037;-87
2023/09/18 03:04:43;;;;;;;0.35;0.35;;;;;;;;;;5003864;28;20037;-87
2023/09/18 03:07:09;;;;;;;0.17;0.17;;;;;;;;;;5021938;28;20040;-87
2023/09/18 03:09:36;;;;;;;0.10;0.10;;;;;;;;;;5023083;28;20056;-87
2023/09/18 03:12:02;;;;;;;0.28;0.28;;;;;;;;;;5023681;28;20052;-86
2023/09/18 03:14:28;;;;;;;0.30;0.30;;;;;;;;;;5023430;28;20684;-87
2023/09/18 03:16:54;;;;;;;0.20;0.20;;;;;;;;;;5040220;28;20041;-87
2023/09/18 03:19:22;;;;;;;0.20;0.20;;;;;;;;;;5023669;28;20124;-86
2023/09/18 03:21:48;;;;;;;0.28;0.28;;;;;;;;;;5024890;28;20044;-86
2023/09/18 03:24:14;;;;;;;0.20;0.20;;;;;;;;;;5022972;28;20040;-87
2023/09/18 03:26:41;;;;;;;0.20;0.20;;;;;;;;;;5023056;28;20080;-87
2023/09/18 03:29:08;;;;;;;0.15;0.15;;;;;;;;;;5024679;28;20072;-87
2023/09/18 03:31:34;;;;;;;0.10;0.10;;;;;;;;;;5024303;28;20481;-87
2023/09/18 03:34:00;;;;;;;0.20;0.20;;;;;;;;;;5024960;28;20044;-87
2023/09/18 03:36:27;;;;;;;0.20;0.20;;;;;;;;;;5018778;28;20117;-87
2023/09/18 03:38:53;;;;;;;0.13;0.13;;;;;;;;;;5004753;28;20410;-87
2023/09/18 03:41:19;;;;;;;0.20;0.20;;;;;;;;;;5004791;28;20044;-87
2023/09/18 03:43:45;;;;;;;0.30;0.30;;;;;;;;;;5004363;28;20390;-87
2023/09/18 03:46:11;;;;;;;0.10;0.10;;;;;;;;;;5013594;28;20045;-87
2023/09/18 03:48:37;;;;;;;0.10;0.10;;;;;;;;;;5034772;28;20044;-87
2023/09/18 03:51:07;;;;;;;0.15;0.15;;;;;;;;;;5017533;28;20060;-87
2023/09/18 03:53:33;;;;;;;0.15;0.15;;;;;;;;;;5021226;28;20040;-87
2023/09/18 03:56:00;;;;;;;0.00;0.00;;;;;;;;;;5008815;28;20368;-87
2023/09/18 03:58:26;;;;;;;0.20;0.20;;;;;;;;;;5009624;28;20383;-87
2023/09/18 04:00:52;;;;;;;0.10;0.10;;;;;;;;;;5019844;28;20517;-87
2023/09/18 04:03:19;;;;;;;0.13;0.13;;;;;;;;;;5019031;28;20397;-87
2023/09/18 04:05:45;;;;;;;0.20;0.20;;;;;;;;;;5020629;28;20033;-87
2023/09/18 04:08:11;;;;;;;0.10;0.10;;;;;;;;;;5022810;28;20041;-87
2023/09/18 04:10:37;;;;;;;0.10;0.10;;;;;;;;;;5026422;28;20041;-88
2023/09/18 04:13:03;;;;;;;0.10;0.10;;;;;;;;;;5029557;28;20225;-87
2023/09/18 04:15:30;;;;;;;0.20;0.20;;;;;;;;;;5006157;28;20033;-87
2023/09/18 04:17:56;;;;;;;0.10;0.10;;;;;;;;;;5015984;28;20045;-86
2023/09/18 04:20:23;;;;;;;0.10;0.10;;;;;;;;;;5023645;28;20048;-86
2023/09/18 04:23:08;;;;;;;0.20;0.20;;;;;;;;;;5019652;28;20068;-86
2023/09/18 04:25:35;;;;;;;0.20;0.20;;;;;;;;;;5004092;28;20041;-87
2023/09/18 04:28:01;;;;;;;0.30;0.30;;;;;;;;;;5007494;28;20045;-87
2023/09/18 04:30:27;;;;;;;0.17;0.17;;;;;;;;;;5003708;28;20037;-87
2023/09/18 04:32:53;;;;;;;0.10;0.10;;;;;;;;;;5023240;28;20033;-87
2023/09/18 04:35:21;;;;;;;0.17;0.17;;;;;;;;;;5024323;28;20044;-87
2023/09/18 04:37:47;;;;;;;0.10;0.10;;;;;;;;;;5033421;28;20053;-89
2023/09/18 04:40:14;;;;;;;0.08;0.08;;;;;;;;;;5039184;28;20032;-87
2023/09/18 04:42:40;;;;;;;0.20;0.20;;;;;;;;;;5023071;28;20045;-87
2023/09/18 04:45:07;;;;;;;0.22;0.22;;;;;;;;;;5021524;28;20078;-87
2023/09/18 04:47:33;;;;;;;0.00;0.00;;;;;;;;;;5019196;28;20032;-87
2023/09/18 04:49:59;;;;;;;0.20;0.20;;;;;;;;;;5019258;28;20112;-88
2023/09/18 04:52:25;;;;;;;0.20;0.20;;;;;;;;;;5014269;28;20067;-87
2023/09/18 04:54:51;;;;;;;0.10;0.10;;;;;;;;;;5019216;28;20037;-87
2023/09/18 04:57:17;;;;;;;0.20;0.20;;;;;;;;;;5038896;28;20052;-88
2023/09/18 04:59:43;;;;;;;0.30;0.30;;;;;;;;;;5039282;28;20045;-88
2023/09/18 05:02:12;;;;;;;0.30;0.30;;;;;;;;;;5017136;28;20045;-88
2023/09/18 05:04:38;;;;;;;0.20;0.20;;;;;;;;;;5018333;28;20112;-87
2023/09/18 05:07:04;;;;;;;0.13;0.13;;;;;;;;;;5016589;28;20075;-87
2023/09/18 05:09:31;;;;;;;0.10;0.10;;;;;;;;;;5019154;28;20096;-88
2023/09/18 05:11:58;;;;;;;0.20;0.20;;;;;;;;;;5014675;28;20074;-85
2023/09/18 05:14:24;;;;;;;0.10;0.10;;;;;;;;;;5013495;28;20033;-87
2023/09/18 05:16:50;;;;;;;0.10;0.10;;;;;;;;;;5023036;28;20037;-86
2023/09/18 05:19:16;;;;;;;0.10;0.10;;;;;;;;;;5021872;28;20044;-86
2023/09/18 05:21:43;;;;;;;0.30;0.30;;;;;;;;;;5021663;28;20134;-87
2023/09/18 05:24:10;;;;;;;0.22;0.22;;;;;;;;;;5022017;28;20044;-87
2023/09/18 05:26:36;;;;;;;0.38;0.38;;;;;;;;;;5039895;28;20084;-86
2023/09/18 05:29:03;;;;;;;0.10;0.10;;;;;;;;;;5022943;28;20044;-86
2023/09/18 05:31:30;;;;;;;0.30;0.30;;;;;;;;;;5023602;28;20387;-86
2023/09/18 05:33:56;;;;;;;0.10;0.10;;;;;;;;;;5023035;28;20521;-87
2023/09/18 05:36:22;;;;;;;0.10;0.10;;;;;;;;;;5022744;28;20095;-86
2023/09/18 05:38:48;;;;;;;0.13;0.13;;;;;;;;;;5022827;28;20045;-86
2023/09/18 05:41:15;;;;;;;0.10;0.10;;;;;;;;;;5039600;28;20274;-87
2023/09/18 05:43:41;;;;;;;0.03;0.03;;;;;;;;;;5023206;28;20041;-86
2023/09/18 05:46:07;;;;;;;0.20;0.20;;;;;;;;;;5022526;28;20080;-86
2023/09/18 05:48:33;;;;;;;0.10;0.10;;;;;;;;;;5022204;28;20041;-87
2023/09/18 05:50:59;;;;;;;0.20;0.20;;;;;;;;;;5022868;28;20147;-87
2023/09/18 05:53:25;;;;;;;0.10;0.10;;;;;;;;;;5021631;28;20033;-87
2023/09/18 05:55:51;;;;;;;0.30;0.30;;;;;;;;;;5021921;28;20037;-87
2023/09/18 05:58:19;;;;;;;0.20;0.20;;;;;;;;;;5039108;28;20136;-87
2023/09/18 06:00:46;;;;;;;0.20;0.20;;;;;;;;;;5022374;28;20108;-87
2023/09/18 06:03:12;;;;;;;0.20;0.20;;;;;;;;;;5038053;28;20076;-86
2023/09/18 06:05:38;;;;;;;0.20;0.20;;;;;;;;;;5022667;28;20102;-87
2023/09/18 06:08:05;;;;;;;0.20;0.20;;;;;;;;;;5022542;28;20128;-86
2023/09/18 06:10:31;;;;;;;0.10;0.10;;;;;;;;;;5022937;28;20090;-87
2023/09/18 06:12:58;;;;;;;0.10;0.10;;;;;;;;;;5035523;28;20106;-86
2023/09/18 06:15:24;;;;;;;0.40;0.40;;;;;;;;;;5039161;28;20044;-88
2023/09/18 06:17:50;;;;;;;0.20;0.20;;;;;;;;;;5038844;28;20037;-88
2023/09/18 06:20:17;;;;;;;0.20;0.20;;;;;;;;;;5054268;28;20040;-88
2023/09/18 06:22:43;;;;;;;0.10;0.10;;;;;;;;;;5037991;28;20041;-87
2023/09/18 06:25:09;;;;;;;0.10;0.10;;;;;;;;;;5053535;28;20045;-88
2023/09/18 06:27:36;;;;;;;0.20;0.20;;;;;;;;;;5037039;28;20072;-88
2023/09/18 06:30:03;;;;;;;0.20;0.20;;;;;;;;;;5037438;28;20075;-87
2023/09/18 06:32:29;;;;;;;0.13;0.13;;;;;;;;;;5041010;28;20037;-88
2023/09/18 06:34:57;;;;;;;0.10;0.10;;;;;;;;;;5041553;28;20041;-88
2023/09/18 06:37:23;;;;;;;0.20;0.20;;;;;;;;;;5059188;28;20045;-88
2023/09/18 06:39:50;;;;;;;0.20;0.20;;;;;;;;;;5028644;28;20060;-89
2023/09/18 06:42:16;;;;;;;0.20;0.20;;;;;;;;;;5026279;28;20048;-88
2023/09/18 06:44:42;;;;;;;0.10;0.10;;;;;;;;;;5035656;28;20468;-87
2023/09/18 06:47:08;;;;;;;0.10;0.10;;;;;;;;;;5045108;28;20157;-86
2023/09/18 06:49:35;;;;;;;0.22;0.22;;;;;;;;;;5038415;28;20037;-87
2023/09/18 06:52:01;;;;;;;0.20;0.20;;;;;;;;;;5025770;28;20104;-85
2023/09/18 06:54:27;;;;;;;0.20;0.20;;;;;;;;;;5025454;28;20039;-86
2023/09/18 06:56:55;;;;;;;0.10;0.10;;;;;;;;;;5042131;28;20037;-85
2023/09/18 06:59:22;;;;;;;0.20;0.20;;;;;;;;;;5031867;28;20041;-85
2023/09/18 07:01:48;;;;;;;0.10;0.10;;;;;;;;;;5026334;28;20045;-85
2023/09/18 07:04:14;;;;;;;0.32;0.32;;;;;;;;;;5042141;28;20132;-85
2023/09/18 07:06:40;;;;;;;0.20;0.20;;;;;;;;;;5056904;28;20036;-85
2023/09/18 07:09:06;;;;;;;0.10;0.10;;;;;;;;;;5041544;28;20041;-84
2023/09/18 07:11:35;;;;;;;0.25;0.25;;;;;;;;;;5041522;28;20033;-86
2023/09/18 07:14:06;;;;;;;0.17;0.17;;;;;;;;;;5040605;28;20045;-86
2023/09/18 07:16:33;;;;;;;0.10;0.10;;;;;;;;;;5028319;28;20041;-85
2023/09/18 07:18:59;;;;;;;0.13;0.13;;;;;;;;;;5009776;28;20044;-84
2023/09/18 07:21:28;;;;;;;0.30;0.30;;;;;;;;;;5036920;28;20486;-86
2023/09/18 07:23:54;;;;;;;0.10;0.10;;;;;;;;;;5033860;28;20041;-87
2023/09/18 07:26:22;;;;;;;0.20;0.20;;;;;;;;;;5026123;28;20044;-94
2023/09/18 07:28:48;;;;;;;0.17;0.17;;;;;;;;;;5027522;28;20041;-87
2023/09/18 07:31:14;;;;;;;0.20;0.20;;;;;;;;;;5026433;28;20033;-86
2023/09/18 07:33:41;;;;;;;0.10;0.10;;;;;;;;;;5025779;28;20059;-87
2023/09/18 07:36:07;;;;;;;0.17;0.17;;;;;;;;;;5026531;28;20037;-87
2023/09/18 07:38:33;;;;;;;0.10;0.10;;;;;;;;;;5042719;28;20055;-86
2023/09/18 07:40:59;;;;;;;0.15;0.15;;;;;;;;;;5042347;28;20029;-89
2023/09/18 07:43:25;;;;;;;0.30;0.30;;;;;;;;;;5025388;28;20072;-87
2023/09/18 07:45:54;;;;;;;0.20;0.20;;;;;;;;;;5026421;28;20076;-88
2023/09/18 07:48:20;;;;;;;0.28;0.28;;;;;;;;;;5026967;28;20045;-87
2023/09/18 07:50:49;;;;;;;0.30;0.30;;;;;;;;;;5043234;28;20087;-88
2023/09/18 07:53:16;;;;;;;0.20;0.20;;;;;;;;;;5041880;28;20033;-88
2023/09/18 07:55:42;;;;;;;0.10;0.10;;;;;;;;;;5042245;28;20041;-87
2023/09/18 07:58:08;;;;;;;0.20;0.20;;;;;;;;;;5042350;28;20052;-87
2023/09/18 08:00:34;;;;;;;0.10;0.10;;;;;;;;;;5039512;28;20393;-88
2023/09/18 08:03:03;;;;;;;0.15;0.15;;;;;;;;;;5026924;28;20100;-91
2023/09/18 08:05:30;;;;;;;0.17;0.17;;;;;;;;;;5026674;28;20040;-91
2023/09/18 08:07:56;;;;;;;0.13;0.13;;;;;;;;;;5025087;28;20105;-89
2023/09/18 08:10:23;;;;;;;0.20;0.20;;;;;;;;;;5022164;28;20126;-87
2023/09/18 08:12:51;;;;;;;0.20;0.20;;;;;;;;;;5005961;28;20040;-88
2023/09/18 08:15:18;;;;;;;0.20;0.20;;;;;;;;;;5024338;28;20037;-88
2023/09/18 08:17:44;;;;;;;0.00;0.00;;;;;;;;;;5025391;28;20123;-88
2023/09/18 08:20:15;;;;;;;0.20;0.20;;;;;;;;;;5025072;28;20555;-89
2023/09/18 08:22:42;;;;;;;0.20;0.20;;;;;;;;;;5041905;28;20045;-88
2023/09/18 08:25:10;;;;;;;0.10;0.10;;;;;;;;;;5026466;28;20036;-89
2023/09/18 08:27:41;;;;;;;0.10;0.10;;;;;;;;;;5026406;28;20045;-87
2023/09/18 08:30:09;;;;;;;0.10;0.10;;;;;;;;;;5025311;28;20040;-87
2023/09/18 08:32:35;;;;;;;0.08;0.08;;;;;;;;;;5024589;28;20443;-88
2023/09/18 08:35:02;;;;;;;0.10;0.10;;;;;;;;;;5036603;28;20041;-88
2023/09/18 08:37:28;;;;;;;0.17;0.17;;;;;;;;;;5042113;28;20037;-87
2023/09/18 08:39:54;;;;;;;0.22;0.22;;;;;;;;;;5043631;28;20044;-90
2023/09/18 08:42:21;;;;;;;0.10;0.10;;;;;;;;;;5045016;28;20511;-90
2023/09/18 08:44:50;;;;;;;0.25;0.25;;;;;;;;;;5042470;28;20049;-89
2023/09/18 08:47:16;;;;;;;0.10;0.10;;;;;;;;;;5041072;28;20055;-86
2023/09/18 08:49:43;;;;;;;0.10;0.10;;;;;;;;;;5031645;28;20098;-90
2023/09/18 08:52:09;;;;;;;0.30;0.30;;;;;;;;;;5025331;28;20036;-89
2023/09/18 08:54:40;;;;;;;0.10;0.10;;;;;;;;;;5047431;28;20501;-90
2023/09/18 08:57:07;;;;;;;0.20;0.20;;;;;;;;;;5041479;28;20048;-89
2023/09/18 08:59:36;;;;;;;0.30;0.30;;;;;;;;;;5034826;28;20497;-87
2023/09/18 09:02:02;;;;;;;0.13;0.13;;;;;;;;;;5025029;28;20085;-86
2023/09/18 09:04:28;;;;;;;0.15;0.15;;;;;;;;;;5030271;28;20043;-89
2023/09/18 09:06:58;;;;;;;0.00;0.00;;;;;;;;;;5041525;28;20048;-89
2023/09/18 09:09:26;;;;;;;0.28;0.28;;;;;;;;;;5041111;28;20028;-87
2023/09/18 09:11:52;;;;;;;0.08;0.08;;;;;;;;;;5041504;28;20048;-89
2023/09/18 09:14:21;;;;;;;0.20;0.20;;;;;;;;;;5053298;28;20088;-89
2023/09/18 09:16:51;;;;;;;0.20;0.20;;;;;;;;;;5023453;28;20041;-87
2023/09/18 09:19:18;;;;;;;0.10;0.10;;;;;;;;;;5024558;28;20040;-86
2023/09/18 09:21:46;;;;;;;0.15;0.15;;;;;;;;;;5023186;28;20136;-88
2023/09/18 09:24:15;;;;;;;0.20;0.20;;;;;;;;;;5040864;28;20045;-88
2023/09/18 09:26:42;;;;;;;0.35;0.35;;;;;;;;;;5041807;28;20398;-89
2023/09/18 09:29:18;;;;;;;0.10;0.10;;;;;;;;;;5023925;28;20045;-88
2023/09/18 09:31:45;;;;;;;0.13;0.13;;;;;;;;;;5024565;28;20037;-87
2023/09/18 09:34:11;;;;;;;0.20;0.20;;;;;;;;;;5024860;28;20485;-86
2023/09/18 09:36:52;;;;;;;0.10;0.10;;;;;;;;;;5024114;28;20037;-85
2023/09/18 09:39:18;;;;;;;0.10;0.10;;;;;;;;;;5024020;28;20159;-86
2023/09/18 09:41:47;;;;;;;0.25;0.25;;;;;;;;;;5024101;28;20055;-85
2023/09/18 09:44:14;;;;;;;0.30;0.30;;;;;;;;;;5023241;28;20123;-87
2023/09/18 09:46:46;;;;;;;0.10;0.10;;;;;;;;;;5022533;28;20448;-86
2023/09/18 09:49:12;;;;;;;0.20;0.20;;;;;;;;;;5023684;28;20483;-89
2023/09/18 09:51:38;;;;;;;0.10;0.10;;;;;;;;;;5024339;28;20080;-89
2023/09/18 09:54:04;;;;;;;0.10;0.10;;;;;;;;;;5024347;28;20037;-89
2023/09/18 09:56:43;;;;;;;0.10;0.10;;;;;;;;;;5025518;28;20041;-89
2023/09/18 09:59:10;;;;;;;0.10;0.10;;;;;;;;;;5024526;28;20044;-89
2023/09/18 10:01:36;;;;;;;0.10;0.10;;;;;;;;;;5039723;28;20100;-89
2023/09/18 10:04:07;;;;;;;0.15;0.15;;;;;;;;;;5022204;28;20100;-88
2023/09/18 10:06:34;;;;;;;0.30;0.30;;;;;;;;;;5027108;28;20036;-88
2023/09/18 10:09:02;;;;;;;0.20;0.20;;;;;;;;;;5027461;28;20041;-89
2023/09/18 10:11:28;;;;;;;0.10;0.10;;;;;;;;;;5027218;28;20041;-91
2023/09/18 10:13:56;;;;;;;0.10;0.10;;;;;;;;;;5030229;28;20504;-92
2023/09/18 10:16:27;;;;;;;0.20;0.20;;;;;;;;;;5029339;28;20127;-91
2023/09/18 10:18:59;;;;;;;0.17;0.17;;;;;;;;;;5045965;28;20093;-92
2023/09/18 10:21:48;;;;;;;0.20;0.20;;;;;;;;;;5028934;28;20041;-90
2023/09/18 10:24:18;;;;;;;0.10;0.10;;;;;;;;;;5026647;28;20417;-90
2023/09/18 10:26:56;;;;;;;0.28;0.28;;;;;;;;;;5027345;28;20046;-90
2023/09/18 10:29:24;;;;;;;0.20;0.20;;;;;;;;;;5053023;28;20045;-89
2023/09/18 10:31:51;;;;;;;0.30;0.30;;;;;;;;;;5043842;28;20509;-90
2023/09/18 10:34:17;;;;;;;0.10;0.10;;;;;;;;;;5060904;28;20041;-89
2023/09/18 10:36:44;;;;;;;0.20;0.20;;;;;;;;;;5045083;28;20124;-90
2023/09/18 10:39:12;;;;;;;0.00;0.00;;;;;;;;;;5045448;28;20051;-89
2023/09/18 10:41:39;;;;;;;0.10;0.10;;;;;;;;;;5045171;28;20453;-89
2023/09/18 10:44:06;;;;;;;0.13;0.13;;;;;;;;;;5044703;28;20074;-90
2023/09/18 10:46:32;;;;;;;0.10;0.10;;;;;;;;;;5044163;28;20064;-90
2023/09/18 10:48:59;;;;;;;0.30;0.30;;;;;;;;;;5060761;28;20041;-90
2023/09/18 10:51:25;;;;;;;0.20;0.20;;;;;;;;;;5044013;28;20083;-90
2023/09/18 10:53:54;;;;;;;0.10;0.10;;;;;;;;;;5044714;28;20028;-90
2023/09/18 10:56:21;;;;;;;0.10;0.10;;;;;;;;;;5044969;28;20056;-90
2023/09/18 10:58:47;;;;;;;0.20;0.20;;;;;;;;;;5044204;28;20040;-89
2023/09/18 11:01:13;;;;;;;0.22;0.22;;;;;;;;;;5043783;28;20080;-90
2023/09/18 11:03:39;;;;;;;0.10;0.10;;;;;;;;;;5059276;28;20044;-87
2023/09/18 11:06:07;;;;;;;0.10;0.10;;;;;;;;;;5044441;28;20068;-90
2023/09/18 11:08:35;;;;;;;0.10;0.10;;;;;;;;;;5047114;28;20429;-91
2023/09/18 11:11:12;;;;;;;0.10;0.10;;;;;;;;;;5044413;28;20048;-92
2023/09/18 11:13:38;;;;;;;0.13;0.13;;;;;;;;;;5041451;28;20037;-88
2023/09/18 11:16:14;;;;;;;0.20;0.20;;;;;;;;;;5025261;28;20398;-86
2023/09/18 11:18:40;;;;;;;0.10;0.10;;;;;;;;;;5024571;28;20041;-89
2023/09/18 11:21:07;;;;;;;0.25;0.25;;;;;;;;;;5009654;28;20047;-91
2023/09/18 11:23:42;;;;;;;0.20;0.20;;;;;;;;;;5026537;28;20577;-89
2023/09/18 11:26:09;;;;;;;0.17;0.17;;;;;;;;;;5027581;28;20059;-90
2023/09/18 11:28:37;;;;;;;0.10;0.10;;;;;;;;;;5026587;28;20052;-89
2023/09/18 11:31:03;;;;;;;0.20;0.20;;;;;;;;;;5042668;28;20041;-89
2023/09/18 11:33:39;;;;;;;0.15;0.15;;;;;;;;;;5025507;28;20048;-89
2023/09/18 11:36:12;;;;;;;0.13;0.13;;;;;;;;;;5026680;28;20413;-89
2023/09/18 11:38:54;;;;;;;0.10;0.10;;;;;;;;;;5025068;28;20547;-88
2023/09/18 11:41:27;;;;;;;0.10;0.10;;;;;;;;;;5024976;28;20041;-89
2023/09/18 11:44:18;;;;;;;0.10;0.10;;;;;;;;;;5025161;28;20033;-89
2023/09/18 11:46:46;;;;;;;0.10;0.10;;;;;;;;;;5015888;28;20460;-88
2023/09/18 11:49:12;;;;;;;0.13;0.13;;;;;;;;;;5006563;28;20041;-91
2023/09/18 11:51:39;;;;;;;0.10;0.10;;;;;;;;;;5005614;28;20120;-89
2023/09/18 11:54:06;;;;;;;0.00;0.00;;;;;;;;;;5021480;28;20059;-93
2023/09/18 11:56:36;;;;;;;0.17;0.17;;;;;;;;;;5025612;28;20493;-91
2023/09/18 11:59:06;;;;;;;0.20;0.20;;;;;;;;;;5026713;28;20037;-88
2023/09/18 12:01:36;;;;;;;0.17;0.17;;;;;;;;;;5025528;28;20060;-87
2023/09/18 12:04:07;;;;;;;0.00;0.00;;;;;;;;;;5026101;28;20094;-88
2023/09/18 12:06:33;;;;;;;0.17;0.17;;;;;;;;;;5025837;28;20048;-89
2023/09/18 12:08:59;;;;;;;0.20;0.20;;;;;;;;;;5035184;28;20128;-89
2023/09/18 12:11:26;;;;;;;0.10;0.10;;;;;;;;;;5041005;28;20040;-91
2023/09/18 12:13:52;;;;;;;0.10;0.10;;;;;;;;;;5026425;28;20044;-89
2023/09/18 12:16:18;;;;;;;0.17;0.17;;;;;;;;;;5025306;28;20076;-88
2023/09/18 12:18:50;;;;;;;0.10;0.10;;;;;;;;;;5026816;28;20401;-88
2023/09/18 12:21:17;;;;;;;0.10;0.10;;;;;;;;;;5027139;28;20049;-91
2023/09/18 12:23:45;;;;;;;0.10;0.10;;;;;;;;;;5033150;28;20159;-88
2023/09/18 12:26:13;;;;;;;0.15;0.15;;;;;;;;;;5042350;28;20040;-89
2023/09/18 12:28:39;;;;;;;0.15;0.15;;;;;;;;;;5025240;28;20037;-88
2023/09/18 12:31:06;;;;;;;0.10;0.10;;;;;;;;;;5024565;28;20041;-88
2023/09/18 12:33:36;;;;;;;0.20;0.20;;;;;;;;;;5046225;28;20056;-88
2023/09/18 12:36:03;;;;;;;0.03;0.03;;;;;;;;;;5024481;28;20048;-88
2023/09/18 12:38:30;;;;;;;0.10;0.10;;;;;;;;;;5028088;28;20048;-90
2023/09/18 12:40:58;;;;;;;0.10;0.10;;;;;;;;;;5042653;28;20041;-91
2023/09/18 12:43:24;;;;;;;0.20;0.20;;;;;;;;;;5038492;28;20045;-91
2023/09/18 12:45:51;;;;;;;0.38;0.38;;;;;;;;;;5025769;28;20045;-90
2023/09/18 12:48:17;;;;;;;0.10;0.10;;;;;;;;;;5024596;28;20043;-89
2023/09/18 12:50:43;;;;;;;0.10;0.10;;;;;;;;;;5024920;28;20220;-88
2023/09/18 12:53:13;;;;;;;0.10;0.10;;;;;;;;;;5024242;28;20104;-89
2023/09/18 12:55:41;;;;;;;0.20;0.20;;;;;;;;;;5024497;28;20024;-90
2023/09/18 12:58:10;;;;;;;0.20;0.20;;;;;;;;;;5025111;28;20105;-89
2023/09/18 13:00:36;;;;;;;0.15;0.15;;;;;;;;;;5041636;28;20124;-91
2023/09/18 13:03:05;;;;;;;0.10;0.10;;;;;;;;;;5042097;28;20178;-89
2023/09/18 13:05:35;;;;;;;0.13;0.13;;;;;;;;;;5024668;28;20482;-88
2023/09/18 13:08:05;;;;;;;0.10;0.10;;;;;;;;;;5024478;28;20041;-88
2023/09/18 13:10:49;;;;;;;0.20;0.20;;;;;;;;;;5041271;28;20041;-88
2023/09/18 13:13:22;;;;;;;0.10;0.10;;;;;;;;;;5040393;28;20120;-88
2023/09/18 13:15:49;;;;;;;0.10;0.10;;;;;;;;;;5040753;28;20032;-88
2023/09/18 13:18:16;;;;;;;0.20;0.20;;;;;;;;;;5033820;28;20047;-89
2023/09/18 13:20:42;;;;;;;0.10;0.10;;;;;;;;;;5039778;28;20040;-88
2023/09/18 13:23:08;;;;;;;0.08;0.08;;;;;;;;;;5025728;28;20040;-89
2023/09/18 13:25:40;;;;;;;0.28;0.28;;;;;;;;;;5025503;28;20047;-89
2023/09/18 13:28:06;;;;;;;0.10;0.10;;;;;;;;;;5026682;28;20040;-91
2023/09/18 13:30:39;;;;;;;0.17;0.17;;;;;;;;;;5024990;28;20041;-91
2023/09/18 13:33:06;;;;;;;0.20;0.20;;;;;;;;;;5041311;28;20045;-91
2023/09/18 13:35:33;;;;;;;0.00;0.00;;;;;;;;;;5025610;28;20044;-89
2023/09/18 13:37:59;;;;;;;0.20;0.20;;;;;;;;;;5024714;28;20052;-88
2023/09/18 13:40:26;;;;;;;0.10;0.10;;;;;;;;;;5032095;28;20055;-88
2023/09/18 13:42:52;;;;;;;0.10;0.10;;;;;;;;;;5041070;28;20040;-90
2023/09/18 13:45:18;;;;;;;0.10;0.10;;;;;;;;;;5023031;28;20041;-89
2023/09/18 13:47:44;;;;;;;0.17;0.17;;;;;;;;;;5023750;28;20041;-87
2023/09/18 13:50:13;;;;;;;0.00;0.00;;;;;;;;;;5023943;28;20028;-88
2023/09/18 13:52:39;;;;;;;0.20;0.20;;;;;;;;;;5014955;28;20405;-88
2023/09/18 13:55:05;;;;;;;0.10;0.10;;;;;;;;;;5020970;28;20504;-88
2023/09/18 13:57:34;;;;;;;0.08;0.08;;;;;;;;;;5003849;28;20105;-89
2023/09/18 14:00:00;;;;;;;0.10;0.10;;;;;;;;;;5020522;28;20049;-90
2023/09/18 14:02:27;;;;;;;0.10;0.10;;;;;;;;;;5005323;28;20083;-89
2023/09/18 14:04:53;;;;;;;0.00;0.00;;;;;;;;;;5020353;28;20483;-90
2023/09/18 14:07:20;;;;;;;0.10;0.10;;;;;;;;;;5004767;28;20045;-90
2023/09/18 14:09:46;;;;;;;0.00;0.00;;;;;;;;;;5005272;28;20402;-89
2023/09/18 14:12:12;;;;;;;0.38;0.38;;;;;;;;;;5004896;28;20088;-88
2023/09/18 14:14:40;;;;;;;0.10;0.10;;;;;;;;;;5003875;28;20048;-88
2023/09/18 14:17:06;;;;;;;0.10;0.10;;;;;;;;;;5004708;28;20438;-88
2023/09/18 14:19:32;;;;;;;0.08;0.08;;;;;;;;;;5004156;28;20052;-88
2023/09/18 14:22:03;;;;;;;0.20;0.20;;;;;;;;;;5003786;28;20025;-88
2023/09/18 14:24:29;;;;;;;0.00;0.00;;;;;;;;;;5003709;28;20115;-88
2023/09/18 14:26:55;;;;;;;0.10;0.10;;;;;;;;;;5004545;28;20065;-87
2023/09/18 14:29:21;;;;;;;0.10;0.10;;;;;;;;;;5003303;28;20032;-88
2023/09/18 14:31:48;;;;;;;0.20;0.20;;;;;;;;;;5003485;28;20041;-88
2023/09/18 14:34:14;;;;;;;0.15;0.15;;;;;;;;;;5019928;28;20052;-88
2023/09/18 14:36:40;;;;;;;0.10;0.10;;;;;;;;;;5003876;28;20407;-88
2023/09/18 14:39:09;;;;;;;0.10;0.10;;;;;;;;;;5020956;28;20129;-88
2023/09/18 14:41:39;;;;;;;0.10;0.10;;;;;;;;;;5003284;28;20155;-89
2023/09/18 14:44:06;;;;;;;0.10;0.10;;;;;;;;;;5005403;28;20039;-89